createdAt,value
2023-01-21T00:00:54.596Z,84.58
2023-01-21T00:03:21.104Z,84.21
2023-01-21T00:05:47.677Z,85.00
2023-01-21T00:08:14.231Z,84.11
2023-01-21T00:10:40.694Z,84.81
2023-01-21T00:13:07.178Z,84.82
2023-01-21T00:15:33.856Z,84.98
2023-01-21T00:18:00.406Z,84.36
2023-01-21T00:20:26.919Z,84.45
2023-01-21T00:22:56.396Z,84.30
2023-01-21T00:25:22.894Z,84.61
2023-01-21T00:27:49.369Z,84.84
2023-01-21T00:30:16.273Z,84.81
2023-01-21T00:32:42.944Z,84.05
2023-01-21T00:35:09.580Z,84.95
2023-01-21T00:37:36.122Z,84.64
2023-01-21T00:40:02.819Z,84.47
2023-01-21T00:42:29.928Z,84.01
2023-01-21T00:44:57.450Z,84.17
2023-01-21T00:47:24.552Z,84.23
2023-01-21T00:49:51.218Z,83.46
2023-01-21T00:52:17.761Z,83.59
2023-01-21T00:54:44.420Z,83.31
2023-01-21T00:57:10.975Z,83.23
2023-01-21T00:59:37.715Z,82.88
2023-01-21T01:02:04.217Z,83.24
2023-01-21T01:04:30.694Z,83.20
2023-01-21T01:06:57.254Z,82.94
2023-01-21T01:09:23.777Z,82.88
2023-01-21T01:11:50.266Z,83.07
2023-01-21T01:14:16.874Z,83.00
2023-01-21T01:16:43.373Z,82.09
2023-01-21T01:19:10.894Z,82.39
2023-01-21T01:21:37.734Z,82.50
2023-01-21T01:24:06.084Z,82.52
2023-01-21T01:26:32.819Z,83.41
2023-01-21T01:29:00.424Z,82.93
2023-01-21T01:31:26.982Z,82.45
2023-01-21T01:33:53.502Z,83.03
2023-01-21T01:36:21.189Z,83.15
2023-01-21T01:38:47.698Z,83.04
2023-01-21T01:41:24.856Z,83.24
2023-01-21T01:44:42.141Z,82.96
2023-01-21T01:47:08.646Z,82.59
2023-01-21T01:49:35.151Z,82.07
2023-01-21T01:52:02.696Z,82.44
2023-01-21T01:54:31.868Z,82.23
2023-01-21T01:57:00.120Z,83.08
2023-01-21T01:59:26.898Z,82.43
2023-01-21T02:01:53.514Z,82.80
2023-01-21T02:04:30.114Z,83.23
2023-01-21T02:06:56.665Z,82.67
2023-01-21T02:09:27.811Z,82.66
2023-01-21T02:11:54.267Z,82.74
2023-01-21T02:14:20.812Z,82.50
2023-01-21T02:17:06.943Z,82.95
2023-01-21T02:19:46.725Z,82.85
2023-01-21T02:22:17.627Z,83.19
2023-01-21T02:25:08.903Z,82.82
2023-01-21T02:27:38.108Z,82.55
2023-01-21T02:30:30.685Z,82.47
2023-01-21T02:33:21.741Z,83.52
2023-01-21T02:36:18.802Z,83.10
2023-01-21T02:39:06.191Z,82.57
2023-01-21T02:41:50.837Z,82.58
2023-01-21T02:44:21.062Z,83.14
2023-01-21T02:47:02.561Z,82.97
2023-01-21T02:49:37.542Z,83.53
2023-01-21T02:52:04.057Z,83.04
2023-01-21T02:54:39.765Z,82.88
2023-01-21T02:57:07.830Z,82.68
2023-01-21T02:59:34.335Z,82.65
2023-01-21T03:02:06.824Z,82.49
2023-01-21T03:04:56.252Z,82.69
2023-01-21T03:07:30.875Z,82.91
2023-01-21T03:10:09.644Z,83.63
2023-01-21T03:12:50.195Z,82.32
2023-01-21T03:15:53.117Z,82.29
2023-01-21T03:18:24.656Z,82.90
2023-01-21T03:20:53.822Z,82.63
2023-01-21T03:23:25.560Z,83.32
2023-01-21T03:25:52.060Z,82.40
2023-01-21T03:28:21.916Z,82.90
2023-01-21T03:30:52.976Z,82.71
2023-01-21T03:33:19.501Z,82.80
2023-01-21T03:35:46.720Z,82.65
2023-01-21T03:38:35.775Z,82.56
2023-01-21T03:41:18.173Z,82.38
2023-01-21T03:43:44.642Z,82.70
2023-01-21T03:46:35.873Z,81.75
2023-01-21T03:49:08.870Z,82.06
2023-01-21T03:51:45.226Z,81.93
2023-01-21T03:54:11.733Z,82.25
2023-01-21T03:56:38.218Z,81.99
2023-01-21T03:59:04.698Z,82.22
2023-01-21T04:01:31.179Z,82.01
2023-01-21T04:03:57.728Z,81.83
2023-01-21T04:06:24.269Z,82.20
2023-01-21T04:08:50.756Z,80.98
2023-01-21T04:11:17.280Z,81.65
2023-01-21T04:13:43.774Z,81.62
2023-01-21T04:16:10.268Z,81.42
2023-01-21T04:18:36.859Z,81.82
2023-01-21T04:21:03.500Z,81.30
2023-01-21T04:23:29.965Z,81.27
2023-01-21T04:25:56.437Z,81.84
2023-01-21T04:28:23.008Z,81.40
2023-01-21T04:30:49.637Z,81.82
2023-01-21T04:33:16.217Z,81.69
2023-01-21T04:35:42.934Z,81.60
2023-01-21T04:38:09.452Z,81.29
2023-01-21T04:40:35.962Z,81.20
2023-01-21T04:43:02.473Z,81.49
2023-01-21T04:45:28.975Z,81.42
2023-01-21T04:47:55.447Z,81.85
2023-01-21T04:50:21.954Z,81.98
2023-01-21T04:52:48.470Z,81.84
2023-01-21T04:55:14.966Z,82.60
2023-01-21T04:57:41.516Z,82.52
2023-01-21T05:00:08.872Z,82.15
2023-01-21T05:02:35.439Z,82.86
2023-01-21T05:05:02.079Z,81.99
2023-01-21T05:07:28.635Z,82.18
2023-01-21T05:09:55.151Z,82.66
2023-01-21T05:12:22.107Z,82.94
2023-01-21T05:14:48.627Z,82.15
2023-01-21T05:17:15.136Z,82.63
2023-01-21T05:19:41.655Z,82.60
2023-01-21T05:22:08.133Z,82.43
2023-01-21T05:24:34.625Z,83.05
2023-01-21T05:27:01.166Z,82.91
2023-01-21T05:29:27.669Z,83.18
2023-01-21T05:31:54.187Z,83.55
2023-01-21T05:34:21.101Z,83.18
2023-01-21T05:36:47.583Z,83.62
2023-01-21T05:39:14.091Z,82.97
2023-01-21T05:41:40.594Z,83.48
2023-01-21T05:44:08.825Z,82.82
2023-01-21T05:46:35.477Z,82.55
2023-01-21T05:49:02.126Z,82.56
2023-01-21T05:51:28.657Z,82.95
2023-01-21T05:53:55.623Z,82.95
2023-01-21T05:56:22.135Z,82.24
2023-01-21T05:58:48.631Z,82.45
2023-01-21T06:01:15.126Z,82.63
2023-01-21T06:03:41.719Z,82.49
2023-01-21T06:06:08.307Z,82.91
2023-01-21T06:08:34.808Z,82.47
2023-01-21T06:11:01.327Z,82.74
2023-01-21T06:13:27.837Z,82.67
2023-01-21T06:15:56.234Z,82.70
2023-01-21T06:18:23.197Z,82.38
2023-01-21T06:20:49.665Z,82.36
2023-01-21T06:23:16.232Z,82.13
2023-01-21T06:25:44.137Z,82.62
2023-01-21T06:28:11.086Z,82.07
2023-01-21T06:30:37.579Z,82.31
2023-01-21T06:33:04.133Z,82.42
2023-01-21T06:35:30.774Z,81.87
2023-01-21T06:37:57.259Z,83.08
2023-01-21T06:40:23.934Z,82.40
2023-01-21T06:42:50.484Z,83.23
2023-01-21T06:45:17.224Z,83.10
2023-01-21T06:47:44.145Z,82.53
2023-01-21T06:50:11.676Z,82.88
2023-01-21T06:52:38.155Z,82.30
2023-01-21T06:55:05.389Z,82.46
2023-01-21T06:57:31.862Z,82.07
2023-01-21T06:59:58.337Z,81.83
2023-01-21T07:02:24.835Z,82.11
2023-01-21T07:04:51.424Z,82.37
2023-01-21T07:07:18.116Z,82.08
2023-01-21T07:09:44.686Z,82.40
2023-01-21T07:12:11.169Z,82.36
2023-01-21T07:14:37.688Z,82.85
2023-01-21T07:17:04.354Z,83.27
2023-01-21T07:19:30.860Z,83.29
2023-01-21T07:21:57.317Z,82.52
2023-01-21T07:24:23.812Z,82.22
2023-01-21T07:26:50.272Z,82.05
2023-01-21T07:29:16.835Z,82.49
2023-01-21T07:31:43.458Z,81.95
2023-01-21T07:34:09.987Z,81.63
2023-01-21T07:36:36.483Z,81.26
2023-01-21T07:39:03.014Z,81.08
2023-01-21T07:41:29.550Z,81.54
2023-01-21T07:43:56.054Z,80.85
2023-01-21T07:46:22.798Z,80.33
2023-01-21T07:48:51.056Z,80.94
2023-01-21T07:51:18.656Z,80.23
2023-01-21T07:53:45.179Z,79.94
2023-01-21T07:56:11.655Z,79.82
2023-01-21T07:58:38.233Z,79.67
2023-01-21T08:01:05.611Z,80.56
2023-01-21T08:03:32.132Z,79.48
2023-01-21T08:05:58.649Z,79.31
2023-01-21T08:08:25.225Z,80.03
2023-01-21T08:10:52.689Z,79.26
2023-01-21T08:13:19.202Z,79.47
2023-01-21T08:15:49.172Z,79.61
2023-01-21T08:18:15.640Z,79.03
2023-01-21T08:20:42.123Z,78.66
2023-01-21T08:23:08.722Z,78.06
2023-01-21T08:25:35.239Z,79.16
2023-01-21T08:28:01.752Z,78.39
2023-01-21T08:30:33.820Z,78.52
2023-01-21T08:33:00.421Z,78.06
2023-01-21T08:35:26.995Z,78.05
2023-01-21T08:37:57.571Z,77.44
2023-01-21T08:40:26.316Z,78.03
2023-01-21T08:43:02.527Z,77.81
2023-01-21T08:45:29.157Z,77.39
2023-01-21T08:47:55.688Z,78.09
2023-01-21T08:50:22.421Z,77.42
2023-01-21T08:52:56.165Z,77.34
2023-01-21T08:55:25.246Z,77.29
2023-01-21T08:57:53.428Z,77.13
2023-01-21T09:00:21.124Z,76.79
2023-01-21T09:02:51.511Z,77.05
2023-01-21T09:05:18.555Z,77.50
2023-01-21T09:07:46.482Z,76.38
2023-01-21T09:10:13.324Z,76.78
2023-01-21T09:12:40.654Z,76.82
2023-01-21T09:15:07.585Z,76.76
2023-01-21T09:17:34.205Z,77.43
2023-01-21T09:20:00.695Z,77.10
2023-01-21T09:22:27.340Z,76.93
2023-01-21T09:24:54.502Z,76.92
2023-01-21T09:27:27.153Z,76.41
2023-01-21T09:29:54.756Z,76.97
2023-01-21T09:32:21.393Z,76.63
2023-01-21T09:34:47.901Z,76.64
2023-01-21T09:37:14.466Z,76.32
2023-01-21T09:39:41.006Z,76.56
2023-01-21T09:42:16.643Z,76.72
2023-01-21T09:44:44.907Z,76.61
2023-01-21T09:47:20.546Z,77.14
2023-01-21T09:49:49.606Z,77.21
2023-01-21T09:52:41.820Z,76.97
2023-01-21T09:55:15.857Z,76.89
2023-01-21T09:58:00.776Z,76.79
2023-01-21T10:00:58.043Z,76.69
2023-01-21T10:03:29.584Z,76.67
2023-01-21T10:06:02.741Z,76.94
2023-01-21T10:08:53.982Z,76.89
2023-01-21T10:11:51.278Z,77.13
2023-01-21T10:14:45.799Z,77.40
2023-01-21T10:17:26.376Z,76.76
2023-01-21T10:20:11.112Z,77.23
2023-01-21T10:22:37.605Z,77.24
2023-01-21T10:25:16.090Z,77.74
2023-01-21T10:27:42.763Z,77.66
2023-01-21T10:30:19.236Z,78.08
2023-01-21T10:32:45.737Z,78.09
2023-01-21T10:35:17.444Z,78.12
2023-01-21T10:38:16.552Z,77.54
2023-01-21T10:40:55.683Z,77.99
2023-01-21T10:43:36.888Z,77.48
2023-01-21T10:46:37.936Z,77.23
2023-01-21T10:49:39.922Z,77.80
2023-01-21T10:52:14.044Z,78.28
2023-01-21T10:55:23.078Z,77.61
2023-01-21T10:58:03.744Z,77.37
2023-01-21T11:00:36.359Z,76.57
2023-01-21T11:03:08.361Z,76.50
2023-01-21T11:05:34.872Z,75.90
2023-01-21T11:08:01.359Z,75.89
2023-01-21T11:10:27.938Z,75.58
2023-01-21T11:12:54.840Z,75.78
2023-01-21T11:15:21.606Z,75.46
2023-01-21T11:17:49.814Z,75.14
2023-01-21T11:20:41.182Z,75.44
2023-01-21T11:23:22.889Z,75.35
2023-01-21T11:25:49.403Z,75.31
2023-01-21T11:28:26.709Z,74.69
2023-01-21T11:31:04.230Z,74.79
2023-01-21T11:33:30.760Z,74.47
2023-01-21T11:35:58.382Z,74.11
2023-01-21T11:38:34.690Z,73.36
2023-01-21T11:41:05.375Z,73.98
2023-01-21T11:43:33.914Z,74.45
2023-01-21T11:46:00.539Z,74.26
2023-01-21T11:48:27.049Z,73.07
2023-01-21T11:51:13.877Z,73.74
2023-01-21T11:53:41.276Z,73.91
2023-01-21T11:56:07.853Z,74.00
2023-01-21T11:58:39.875Z,73.21
2023-01-21T12:01:18.531Z,73.25
2023-01-21T12:03:52.075Z,73.14
2023-01-21T12:06:23.190Z,73.12
2023-01-21T12:08:50.468Z,73.07
2023-01-21T12:11:22.831Z,73.06
2023-01-21T12:14:07.866Z,73.34
2023-01-21T12:16:46.195Z,73.61
2023-01-21T12:19:21.406Z,73.09
2023-01-21T12:21:57.139Z,73.36
2023-01-21T12:24:36.681Z,72.52
2023-01-21T12:27:14.574Z,72.30
2023-01-21T12:29:46.844Z,72.24
2023-01-21T12:32:24.463Z,72.63
2023-01-21T12:34:57.541Z,72.47
2023-01-21T12:37:31.920Z,72.47
2023-01-21T12:39:59.589Z,72.36
2023-01-21T12:42:34.738Z,72.46
2023-01-21T12:45:11.478Z,71.70
2023-01-21T12:47:45.211Z,72.19
2023-01-21T12:50:32.958Z,72.03
2023-01-21T12:53:11.332Z,71.24
2023-01-21T12:55:53.973Z,71.81
2023-01-21T12:58:21.283Z,72.32
2023-01-21T13:00:49.391Z,71.75
2023-01-21T13:03:21.338Z,72.46
2023-01-21T13:06:00.972Z,71.56
2023-01-21T13:08:41.231Z,71.11
2023-01-21T13:11:16.615Z,71.57
2023-01-21T13:13:51.601Z,71.40
2023-01-21T13:16:18.133Z,71.73
2023-01-21T13:18:49.876Z,71.60
2023-01-21T13:21:22.351Z,71.01
2023-01-21T13:23:58.426Z,70.46
2023-01-21T13:26:43.604Z,70.89
2023-01-21T13:29:36.159Z,70.32
2023-01-21T13:32:21.374Z,70.03
2023-01-21T13:35:11.959Z,70.01
2023-01-21T13:38:03.564Z,70.14
2023-01-21T13:40:33.181Z,70.04
2023-01-21T13:43:28.819Z,70.35
2023-01-21T13:45:58.029Z,70.24
2023-01-21T13:48:45.688Z,69.93
2023-01-21T13:51:20.903Z,69.40
2023-01-21T13:53:57.438Z,70.17
2023-01-21T13:56:36.172Z,69.86
2023-01-21T13:59:28.846Z,70.51
2023-01-21T14:02:17.984Z,70.12
2023-01-21T14:04:59.075Z,70.04
2023-01-21T14:07:31.701Z,70.62
2023-01-21T14:10:09.331Z,70.56
2023-01-21T14:12:51.412Z,70.55
2023-01-21T14:15:39.679Z,70.49
2023-01-21T14:18:18.511Z,70.37
2023-01-21T14:20:57.413Z,69.61
2023-01-21T14:23:29.705Z,70.58
2023-01-21T14:26:17.341Z,70.29
2023-01-21T14:28:48.324Z,69.98
2023-01-21T14:31:18.356Z,69.66
2023-01-21T14:33:53.076Z,70.00
2023-01-21T14:37:12.121Z,69.64
2023-01-21T14:39:45.978Z,70.31
2023-01-21T14:42:24.786Z,70.03
2023-01-21T14:44:51.376Z,70.28
2023-01-21T14:47:23.130Z,70.21
2023-01-21T14:49:51.503Z,70.29
2023-01-21T14:52:28.371Z,69.94
2023-01-21T14:54:54.898Z,70.03
2023-01-21T14:57:31.777Z,69.85
2023-01-21T15:00:14.091Z,69.37
2023-01-21T15:02:44.685Z,69.95
2023-01-21T15:05:11.116Z,69.50
2023-01-21T15:07:41.917Z,70.06
2023-01-21T15:10:30.788Z,70.12
2023-01-21T15:13:00.274Z,70.59
2023-01-21T15:15:40.018Z,70.62
2023-01-21T15:18:09.193Z,70.20
2023-01-21T15:20:47.832Z,70.38
2023-01-21T15:23:29.463Z,70.60
2023-01-21T15:26:04.759Z,70.42
2023-01-21T15:29:36.699Z,70.96
2023-01-21T15:32:24.329Z,71.29
2023-01-21T15:34:54.364Z,71.55
2023-01-21T15:37:22.190Z,70.82
2023-01-21T15:39:52.378Z,70.96
2023-01-21T15:42:47.888Z,71.23
2023-01-21T15:45:30.269Z,70.91
2023-01-21T15:48:04.848Z,70.51
2023-01-21T15:50:40.895Z,70.92
2023-01-21T15:53:26.715Z,70.68
2023-01-21T15:56:14.616Z,70.33
2023-01-21T15:58:52.684Z,70.46
2023-01-21T16:01:49.602Z,71.06
2023-01-21T16:04:37.853Z,70.91
2023-01-21T16:07:30.000Z,70.47
2023-01-21T16:10:06.905Z,71.16
2023-01-21T16:12:55.173Z,71.14
2023-01-21T16:15:35.709Z,71.48
2023-01-21T16:18:04.282Z,72.19
2023-01-21T16:20:32.482Z,72.37
2023-01-21T16:23:00.615Z,72.88
2023-01-21T16:25:27.070Z,72.39
2023-01-21T16:27:54.286Z,72.65
2023-01-21T16:30:23.035Z,72.71
2023-01-21T16:33:12.842Z,73.18
2023-01-21T16:35:45.628Z,73.58
2023-01-21T16:38:22.055Z,73.71
2023-01-21T16:40:50.052Z,74.25
2023-01-21T16:43:24.025Z,73.83
2023-01-21T16:45:55.350Z,73.61
2023-01-21T16:48:32.138Z,74.06
2023-01-21T16:50:58.851Z,73.91
2023-01-21T16:53:25.614Z,74.29
2023-01-21T16:55:54.319Z,74.36
2023-01-21T16:58:32.562Z,75.67
2023-01-21T17:01:09.704Z,76.14
2023-01-21T17:03:36.467Z,76.30
2023-01-21T17:06:18.696Z,76.81
2023-01-21T17:08:53.777Z,77.12
2023-01-21T17:11:20.645Z,76.96
2023-01-21T17:13:47.149Z,77.92
2023-01-21T17:16:18.943Z,78.64
2023-01-21T17:18:54.371Z,78.17
2023-01-21T17:21:27.973Z,78.66
2023-01-21T17:23:56.433Z,78.40
2023-01-21T17:26:29.571Z,78.39
2023-01-21T17:29:09.011Z,78.68
2023-01-21T17:31:42.650Z,78.43
2023-01-21T17:34:15.361Z,78.60
2023-01-21T17:36:43.022Z,78.58
2023-01-21T17:39:09.912Z,78.66
2023-01-21T17:41:41.070Z,78.87
2023-01-21T17:44:19.246Z,78.64
2023-01-21T17:46:49.590Z,78.52
2023-01-21T17:49:18.154Z,78.67
2023-01-21T17:51:45.011Z,78.38
2023-01-21T17:54:21.675Z,78.29
2023-01-21T17:56:49.617Z,78.73
2023-01-21T17:59:41.531Z,78.39
2023-01-21T18:02:12.901Z,78.10
2023-01-21T18:04:39.711Z,77.91
2023-01-21T18:07:21.718Z,78.45
2023-01-21T18:09:48.496Z,78.25
2023-01-21T18:12:14.991Z,78.43
2023-01-21T18:14:42.333Z,77.69
2023-01-21T18:17:16.236Z,78.22
2023-01-21T18:19:42.815Z,78.30
2023-01-21T18:22:15.595Z,78.48
2023-01-21T18:24:42.083Z,78.14
2023-01-21T18:27:08.631Z,78.20
2023-01-21T18:29:35.083Z,78.40
2023-01-21T18:32:01.650Z,78.27
2023-01-21T18:34:29.174Z,78.62
2023-01-21T18:36:57.650Z,78.45
2023-01-21T18:39:24.356Z,78.35
2023-01-21T18:41:50.936Z,78.29
2023-01-21T18:44:17.844Z,78.60
2023-01-21T18:46:44.421Z,78.41
2023-01-21T18:49:15.357Z,78.77
2023-01-21T18:51:41.896Z,78.39
2023-01-21T18:54:08.743Z,78.72
2023-01-21T18:56:36.463Z,78.86
2023-01-21T18:59:03.162Z,78.89
2023-01-21T19:01:29.800Z,79.19
2023-01-21T19:03:56.403Z,79.03
2023-01-21T19:06:22.951Z,79.22
2023-01-21T19:08:49.510Z,79.16
2023-01-21T19:11:16.804Z,79.19
2023-01-21T19:13:43.308Z,79.09
2023-01-21T19:16:14.710Z,79.24
2023-01-21T19:18:41.285Z,79.14
2023-01-21T19:21:08.211Z,79.38
2023-01-21T19:23:37.569Z,79.31
2023-01-21T19:26:04.483Z,78.98
2023-01-21T19:28:31.001Z,79.43
2023-01-21T19:30:58.383Z,79.73
2023-01-21T19:33:25.185Z,79.26
2023-01-21T19:36:03.582Z,79.53
2023-01-21T19:38:30.223Z,79.47
2023-01-21T19:40:56.798Z,78.92
2023-01-21T19:43:23.401Z,79.55
2023-01-21T19:45:51.264Z,79.50
2023-01-21T19:48:19.102Z,79.60
2023-01-21T19:50:45.750Z,79.25
2023-01-21T19:53:16.758Z,79.44
2023-01-21T19:55:43.698Z,79.02
2023-01-21T19:58:19.666Z,79.60
2023-01-21T20:00:50.244Z,79.50
2023-01-21T20:03:17.545Z,79.61
2023-01-21T20:05:44.206Z,79.23
2023-01-21T20:08:15.199Z,79.69
2023-01-21T20:10:41.970Z,79.30
2023-01-21T20:13:12.999Z,79.05
2023-01-21T20:15:39.721Z,79.16
2023-01-21T20:18:06.273Z,79.40
2023-01-21T20:20:32.838Z,79.46
2023-01-21T20:22:59.963Z,79.09
2023-01-21T20:25:37.300Z,79.52
2023-01-21T20:28:16.565Z,79.47
2023-01-21T20:30:43.369Z,79.11
2023-01-21T20:33:14.559Z,79.21
2023-01-21T20:35:41.108Z,79.13
2023-01-21T20:38:11.710Z,79.84
2023-01-21T20:40:38.263Z,79.71
2023-01-21T20:43:04.735Z,79.51
2023-01-21T20:45:33.597Z,79.92
2023-01-21T20:48:01.797Z,80.11
2023-01-21T20:50:36.054Z,79.75
2023-01-21T20:53:03.265Z,79.71
2023-01-21T20:55:29.882Z,79.62
2023-01-21T20:57:56.472Z,79.49
2023-01-21T21:00:28.436Z,79.15
2023-01-21T21:02:55.577Z,79.22
2023-01-21T21:05:22.340Z,78.66
2023-01-21T21:07:48.821Z,78.71
2023-01-21T21:10:20.066Z,79.11
2023-01-21T21:12:47.217Z,79.45
2023-01-21T21:15:13.760Z,79.33
2023-01-21T21:17:40.478Z,79.01
2023-01-21T21:20:09.929Z,79.19
2023-01-21T21:22:36.420Z,79.77
2023-01-21T21:25:02.976Z,79.05
2023-01-21T21:27:29.499Z,79.13
2023-01-21T21:29:59.177Z,79.02
2023-01-21T21:32:25.783Z,79.62
2023-01-21T21:34:55.351Z,79.52
2023-01-21T21:37:21.904Z,79.23
2023-01-21T21:39:48.411Z,80.21
2023-01-21T21:42:33.335Z,79.61
2023-01-21T21:44:59.881Z,79.46
2023-01-21T21:47:44.836Z,79.57
2023-01-21T21:50:11.411Z,79.57
2023-01-21T21:52:37.959Z,80.01
2023-01-21T21:55:04.862Z,80.06
2023-01-21T21:57:32.134Z,80.24
2023-01-21T21:59:58.635Z,80.02
2023-01-21T22:02:25.271Z,79.92
2023-01-21T22:04:54.900Z,80.61
2023-01-21T22:07:21.436Z,79.88
2023-01-21T22:09:47.945Z,80.20
2023-01-21T22:12:14.418Z,80.19
2023-01-21T22:14:40.949Z,79.78
2023-01-21T22:17:08.839Z,80.20
2023-01-21T22:19:37.614Z,80.72
2023-01-21T22:22:04.333Z,79.90
2023-01-21T22:24:30.890Z,79.66
2023-01-21T22:26:57.383Z,79.63
2023-01-21T22:29:23.860Z,79.99
2023-01-21T22:31:50.521Z,79.96
2023-01-21T22:34:17.138Z,79.63
2023-01-21T22:36:46.997Z,79.89
2023-01-21T22:39:13.986Z,79.85
2023-01-21T22:41:40.489Z,79.58
2023-01-21T22:44:07.001Z,79.86
2023-01-21T22:46:34.179Z,80.48
2023-01-21T22:49:00.758Z,80.15
2023-01-21T22:51:27.462Z,79.84
2023-01-21T22:53:54.122Z,80.23
2023-01-21T22:56:40.006Z,79.68
2023-01-21T22:59:10.789Z,79.94
2023-01-21T23:01:37.481Z,79.82
2023-01-21T23:04:03.998Z,79.52
2023-01-21T23:06:30.615Z,79.89
2023-01-21T23:08:57.143Z,79.54
2023-01-21T23:11:23.639Z,79.67
2023-01-21T23:13:50.309Z,80.09
2023-01-21T23:16:17.954Z,80.15
2023-01-21T23:18:44.490Z,80.33
2023-01-21T23:21:14.399Z,79.96
2023-01-21T23:23:40.895Z,80.07
2023-01-21T23:26:09.080Z,80.42
2023-01-21T23:28:35.767Z,80.71
2023-01-21T23:31:05.930Z,80.64
2023-01-21T23:33:33.035Z,80.78
2023-01-21T23:36:01.032Z,81.32
2023-01-21T23:38:28.703Z,81.57
2023-01-21T23:40:56.258Z,81.31
2023-01-21T23:43:26.835Z,81.54
2023-01-21T23:45:54.052Z,81.62
2023-01-21T23:48:21.033Z,81.57
2023-01-21T23:50:47.657Z,81.90
2023-01-21T23:53:14.309Z,82.04
2023-01-21T23:55:40.788Z,81.24
2023-01-21T23:58:07.352Z,81.38
